Time;durP1;ratioP1;P1;durP2;ratioP2;P2;SDS_P1;SDS_P2;PMS_P1;PMS_P2;Temp;Humidity;BMP_temperature;BMP_pressure;BME280_temperature;BME280_humidity;BME280_pressure;Samples;Min_cycle;Max_cycle;Signal;HPM_P1;HPM_P2
2022/12/15 00:40:26;;;;;;;;;;;10.60;51.00;;;;;;4880906;29;20057;-68
2022/12/15 00:42:52;;;;;;;1.95;0.63;;;10.60;51.10;;;;;;4880818;29;19935;-68
2022/12/15 00:45:17;;;;;;;1.40;0.73;;;10.60;51.10;;;;;;4880604;29;20052;-69
2022/12/15 00:47:43;;;;;;;1.50;0.50;;;10.60;51.10;;;;;;4863590;29;20064;-68
2022/12/15 05:33:06;;;;;;;1.77;0.30;;;9.70;56.70;;;;;;4902672;29;20460;-70
2022/12/15 05:35:32;;;;;;;3.72;0.65;;;9.70;56.30;;;;;;4903498;29;20045;-70
2022/12/15 05:37:58;;;;;;;3.95;0.43;;;9.70;55.90;;;;;;4903825;29;20128;-70
2022/12/15 05:40:23;;;;;;;3.08;0.40;;;9.80;55.80;;;;;;4899551;29;20372;-72
2022/12/15 05:42:49;;;;;;;5.70;0.40;;;9.90;55.90;;;;;;4893210;29;20116;-70
2022/12/15 05:45:15;;;;;;;3.80;0.90;;;10.10;55.90;;;;;;4898654;29;20056;-71
2022/12/15 05:47:40;;;;;;;1.17;0.40;;;10.20;55.60;;;;;;4913541;29;20348;-74
2022/12/15 05:50:07;;;;;;;3.67;0.47;;;10.50;55.40;;;;;;4920943;29;20059;-71
2022/12/15 05:52:32;;;;;;;5.80;0.45;;;10.70;55.30;;;;;;4920993;29;20088;-72
2022/12/15 05:54:58;;;;;;;12.35;1.00;;;10.90;55.40;;;;;;4903290;29;20052;-70
2022/12/15 05:57:24;;;;;;;8.93;1.13;;;11.00;55.30;;;;;;4920892;29;20372;-72
2022/12/15 05:59:49;;;;;;;3.20;0.38;;;11.10;55.30;;;;;;4915262;29;20040;-72
2022/12/15 06:02:15;;;;;;;9.77;0.90;;;11.10;55.80;;;;;;4902582;29;20492;-71
2022/12/15 06:04:41;;;;;;;6.70;0.75;;;11.30;55.90;;;;;;4912136;29;20052;-70
2022/12/15 06:07:06;;;;;;;4.75;0.80;;;11.50;56.30;;;;;;4917100;29;20045;-70
2022/12/15 06:09:32;;;;;;;6.15;0.73;;;11.60;56.20;;;;;;4901940;29;20051;-69
2022/12/15 06:11:58;;;;;;;5.15;1.23;;;11.80;56.10;;;;;;4907064;29;20167;-71
2022/12/15 06:14:23;;;;;;;3.20;1.33;;;11.90;56.20;;;;;;4902790;29;20049;-70
2022/12/15 06:16:49;;;;;;;4.60;1.08;;;12.00;56.10;;;;;;4902608;29;20067;-71
2022/12/15 06:19:15;;;;;;;5.53;1.10;;;12.10;56.00;;;;;;4902468;29;20084;-71
2022/12/15 06:21:41;;;;;;;3.00;1.23;;;12.10;56.00;;;;;;4902035;29;20072;-70
2022/12/15 06:24:07;;;;;;;3.55;0.80;;;12.30;56.00;;;;;;4901472;29;20524;-72
2022/12/15 06:26:35;;;;;;;3.67;1.00;;;12.40;55.80;;;;;;4901153;29;20119;-73
2022/12/15 06:29:02;;;;;;;6.97;1.17;;;12.50;56.10;;;;;;4927994;29;20059;-72
2022/12/15 06:31:28;;;;;;;4.50;0.95;;;12.50;56.00;;;;;;4940010;29;20062;-70
2022/12/15 06:33:55;;;;;;;7.15;0.90;;;12.70;55.60;;;;;;4923027;29;20044;-71
2022/12/15 06:36:24;;;;;;;8.23;1.40;;;12.70;56.10;;;;;;4938914;29;20048;-75
2022/12/15 06:38:51;;;;;;;6.25;1.58;;;12.80;56.10;;;;;;4939521;29;20379;-70
2022/12/15 06:41:19;;;;;;;5.18;1.05;;;12.90;56.00;;;;;;4939259;29;20422;-73
2022/12/15 06:43:56;;;;;;;8.02;1.00;;;13.00;56.00;;;;;;4939276;29;20518;-72
2022/12/15 06:46:23;;;;;;;10.73;1.48;;;13.10;56.30;;;;;;4939254;29;20055;-72
2022/12/15 06:48:49;;;;;;;13.40;1.30;;;13.10;56.50;;;;;;4939498;29;20332;-71
2022/12/15 06:51:16;;;;;;;9.27;0.90;;;13.20;56.60;;;;;;4939071;29;20043;-72
2022/12/15 06:53:47;;;;;;;18.27;1.80;;;13.30;56.70;;;;;;4939075;29;20052;-71
2022/12/15 06:56:27;;;;;;;9.50;1.95;;;13.30;56.80;;;;;;4939266;29;20052;-73
2022/12/15 06:58:54;;;;;;;10.38;2.58;;;13.40;57.20;;;;;;4939124;29;20059;-72
2022/12/15 07:01:22;;;;;;;10.43;2.22;;;13.40;57.00;;;;;;4938732;29;20058;-73
2022/12/15 07:03:48;;;;;;;9.82;2.05;;;13.40;57.20;;;;;;4938931;29;20052;-72
2022/12/15 07:06:15;;;;;;;8.38;2.20;;;13.30;57.50;;;;;;4938955;29;20044;-73
2022/12/15 07:08:42;;;;;;;16.75;2.72;;;13.30;58.20;;;;;;4921912;29;20051;-74
2022/12/15 07:11:11;;;;;;;11.88;2.67;;;13.40;58.50;;;;;;4939023;29;20055;-73
2022/12/15 07:13:37;;;;;;;17.20;3.38;;;13.50;58.30;;;;;;4938295;29;20155;-72
2022/12/15 07:16:05;;;;;;;10.77;3.35;;;13.60;58.10;;;;;;4938483;29;20477;-71
2022/12/15 07:18:32;;;;;;;13.73;3.03;;;13.60;58.00;;;;;;4938642;29;20043;-72
2022/12/15 07:21:03;;;;;;;14.90;2.70;;;13.70;57.80;;;;;;4922628;29;20067;-70
2022/12/15 07:23:29;;;;;;;16.23;2.85;;;13.80;57.60;;;;;;4939985;29;20048;-71
2022/12/15 07:25:55;;;;;;;15.15;2.65;;;13.90;57.30;;;;;;4939286;29;20083;-72
2022/12/15 07:28:20;;;;;;;16.10;2.35;;;14.00;57.00;;;;;;4937783;29;20419;-71
2022/12/15 07:30:47;;;;;;;12.27;2.13;;;14.00;56.90;;;;;;4933834;29;20040;-74
2022/12/15 07:33:13;;;;;;;17.50;2.78;;;14.00;57.00;;;;;;4934083;29;20394;-72
2022/12/15 07:35:39;;;;;;;9.43;2.05;;;14.10;56.80;;;;;;4937221;29;20054;-72
2022/12/15 07:38:06;;;;;;;11.43;1.60;;;14.10;56.90;;;;;;4922056;29;20048;-73
2022/12/15 07:40:32;;;;;;;7.55;2.33;;;14.10;56.80;;;;;;4938232;29;20127;-73
2022/12/15 07:42:58;;;;;;;11.85;2.03;;;14.20;56.70;;;;;;4917363;29;20096;-74
2022/12/15 07:45:24;;;;;;;9.48;1.75;;;14.20;56.50;;;;;;4920369;29;20367;-74
2022/12/15 07:47:50;;;;;;;4.63;1.33;;;14.30;56.40;;;;;;4920855;29;20115;-74
2022/12/15 07:50:17;;;;;;;7.78;1.27;;;14.40;56.00;;;;;;4921561;29;20126;-73
2022/12/15 07:52:44;;;;;;;5.43;1.33;;;14.30;55.40;;;;;;4938284;29;20048;-73
2022/12/15 07:55:09;;;;;;;8.13;1.45;;;14.40;54.40;;;;;;4936319;29;20079;-71
2022/12/15 07:57:35;;;;;;;3.70;1.15;;;14.30;52.90;;;;;;4935777;29;20422;-69
2022/12/15 08:00:04;;;;;;;6.90;1.13;;;14.30;51.70;;;;;;4935117;29;20122;-71
2022/12/15 08:02:30;;;;;;;4.00;1.17;;;14.20;50.80;;;;;;4932176;29;20127;-71
2022/12/15 08:04:55;;;;;;;3.78;0.75;;;14.10;50.50;;;;;;4928067;29;20119;-72
2022/12/15 08:07:21;;;;;;;5.93;0.90;;;14.10;50.80;;;;;;4929531;29;20052;-69
2022/12/15 08:09:47;;;;;;;4.20;0.82;;;14.10;51.00;;;;;;4930553;29;20052;-72
2022/12/15 08:12:13;;;;;;;7.10;1.10;;;14.10;51.30;;;;;;4933381;29;20052;-72
2022/12/15 08:14:39;;;;;;;5.03;0.93;;;14.20;51.80;;;;;;4936061;29;20054;-71
2022/12/15 08:17:05;;;;;;;4.82;0.40;;;14.20;52.20;;;;;;4920644;29;20052;-71
2022/12/15 08:19:31;;;;;;;4.03;0.70;;;14.30;52.70;;;;;;4937308;29;20126;-72
2022/12/15 08:21:57;;;;;;;6.18;0.85;;;14.30;53.00;;;;;;4938229;29;20048;-70
2022/12/15 08:24:23;;;;;;;2.08;0.60;;;14.30;53.20;;;;;;4921502;29;20113;-71
2022/12/15 08:26:49;;;;;;;5.80;0.60;;;14.40;53.50;;;;;;4938059;29;20040;-71
2022/12/15 08:29:14;;;;;;;7.75;0.60;;;14.40;53.60;;;;;;4937419;29;20514;-71
2022/12/15 08:31:40;;;;;;;4.93;0.80;;;14.40;53.60;;;;;;4937600;29;20061;-72
2022/12/15 08:34:06;;;;;;;5.00;0.73;;;14.40;53.80;;;;;;4932131;29;20383;-72
2022/12/15 08:36:32;;;;;;;5.18;0.65;;;14.30;54.00;;;;;;4935233;29;20335;-74
2022/12/15 08:38:59;;;;;;;6.15;0.65;;;14.20;54.20;;;;;;4920268;29;20587;-73
2022/12/15 08:41:28;;;;;;;10.13;0.95;;;14.20;54.40;;;;;;4937600;29;20048;-72
2022/12/15 08:43:56;;;;;;;5.82;0.60;;;14.20;54.80;;;;;;4919971;29;20051;-72
2022/12/15 08:46:27;;;;;;;5.85;0.80;;;14.20;54.90;;;;;;4936987;29;20058;-71
2022/12/15 08:48:53;;;;;;;9.55;0.88;;;14.20;55.10;;;;;;4936966;29;20470;-70
2022/12/15 08:51:20;;;;;;;6.72;0.60;;;14.20;55.20;;;;;;4937442;29;20114;-70
2022/12/15 08:53:46;;;;;;;7.38;0.80;;;14.20;55.00;;;;;;4937017;29;20118;-72
2022/12/15 08:56:17;;;;;;;5.90;1.02;;;14.10;53.60;;;;;;4920563;29;20047;-73
2022/12/15 08:58:44;;;;;;;4.80;1.20;;;14.10;53.20;;;;;;4937031;29;20051;-73
2022/12/15 09:01:15;;;;;;;6.78;0.82;;;14.00;52.50;;;;;;4937349;29;20051;-73
2022/12/15 09:03:42;;;;;;;8.20;0.77;;;14.10;52.60;;;;;;4931878;29;20068;-75
2022/12/15 09:06:16;;;;;;;9.98;0.98;;;14.10;52.70;;;;;;4937293;29;20102;-73
2022/12/15 09:08:43;;;;;;;7.47;1.00;;;14.10;52.70;;;;;;4937023;29;20058;-74
2022/12/15 09:11:09;;;;;;;12.68;1.85;;;14.10;52.20;;;;;;4937133;29;20059;-73
2022/12/15 09:13:35;;;;;;;10.43;1.50;;;14.10;51.70;;;;;;4937318;29;20043;-73
2022/12/15 09:16:04;;;;;;;15.02;1.23;;;14.10;51.90;;;;;;4920198;29;20047;-73
2022/12/15 09:18:30;;;;;;;10.02;1.30;;;14.10;51.80;;;;;;4937059;29;20043;-73
2022/12/15 09:21:04;;;;;;;15.95;1.80;;;14.20;51.60;;;;;;4933476;29;20040;-74
2022/12/15 09:23:30;;;;;;;9.70;1.25;;;14.30;51.50;;;;;;4937200;29;20130;-73
2022/12/15 09:26:04;;;;;;;8.98;1.08;;;14.30;51.50;;;;;;4937014;29;20391;-73
2022/12/15 09:28:33;;;;;;;4.68;0.70;;;14.30;51.40;;;;;;4916872;29;20052;-74
2022/12/15 09:31:10;;;;;;;10.35;0.90;;;14.30;51.60;;;;;;4916309;29;20112;-75
2022/12/15 09:33:37;;;;;;;7.78;0.93;;;14.40;51.50;;;;;;4883259;29;20103;-74
2022/12/15 09:36:03;;;;;;;7.85;1.02;;;14.40;51.60;;;;;;4916067;29;20095;-73
2022/12/15 09:38:30;;;;;;;8.15;0.77;;;14.50;51.60;;;;;;4909600;29;20055;-73
2022/12/15 09:40:56;;;;;;;7.85;1.08;;;14.50;51.80;;;;;;4917310;29;20055;-73
2022/12/15 09:43:26;;;;;;;14.48;1.88;;;14.50;51.90;;;;;;4900256;29;20344;-73
2022/12/15 09:46:00;;;;;;;8.93;1.02;;;14.40;52.10;;;;;;4902902;29;20053;-74
2022/12/15 09:48:39;;;;;;;8.48;1.17;;;14.40;52.50;;;;;;4898347;29;20056;-74
2022/12/15 09:51:09;;;;;;;9.38;1.48;;;14.40;52.70;;;;;;4900057;29;20056;-73
2022/12/15 09:53:35;;;;;;;7.30;1.33;;;14.40;52.70;;;;;;4917478;29;20103;-73
2022/12/15 09:56:09;;;;;;;11.27;0.98;;;14.40;52.60;;;;;;4917434;29;20079;-74
2022/12/15 09:58:47;;;;;;;8.60;0.95;;;14.40;52.60;;;;;;4912779;29;20170;-75
2022/12/15 10:01:33;;;;;;;6.45;1.13;;;14.40;52.60;;;;;;4902654;29;20056;-73
2022/12/15 10:04:18;;;;;;;7.53;1.35;;;14.40;52.60;;;;;;4902581;29;20135;-73
2022/12/15 10:06:50;;;;;;;8.27;1.10;;;14.30;52.60;;;;;;4915751;29;20123;-73
2022/12/15 10:09:27;;;;;;;4.53;0.95;;;14.30;52.60;;;;;;4920662;29;20040;-74
2022/12/15 10:12:05;;;;;;;5.72;1.15;;;14.30;52.60;;;;;;4920943;29;20119;-73
2022/12/15 10:14:38;;;;;;;6.00;0.70;;;14.30;52.70;;;;;;4906738;29;20138;-73
2022/12/15 10:17:20;;;;;;;10.45;1.52;;;14.20;52.60;;;;;;4920299;29;20052;-74
2022/12/15 10:20:04;;;;;;;3.53;0.65;;;14.20;52.80;;;;;;4914636;29;20428;-75
2022/12/15 10:22:37;;;;;;;7.47;1.02;;;14.10;52.80;;;;;;4909885;29;20349;-73
2022/12/15 10:25:23;;;;;;;4.33;1.37;;;14.10;52.90;;;;;;4902454;29;20075;-73
2022/12/15 10:27:49;;;;;;;4.20;0.88;;;14.00;52.80;;;;;;4916777;29;20052;-73
2022/12/15 10:30:15;;;;;;;2.78;0.70;;;14.00;52.90;;;;;;4939554;29;20123;-74
2022/12/15 10:33:00;;;;;;;4.05;0.88;;;14.00;52.90;;;;;;4940026;29;20379;-74
2022/12/15 10:35:34;;;;;;;3.38;0.65;;;13.90;52.80;;;;;;4939423;29;20048;-72
2022/12/15 10:38:04;;;;;;;3.88;0.68;;;13.90;52.90;;;;;;4939676;29;20054;-74
2022/12/15 10:40:53;;;;;;;4.07;0.95;;;13.80;52.90;;;;;;4939379;29;20043;-74
2022/12/15 10:43:46;;;;;;;3.53;0.80;;;13.80;52.90;;;;;;4939315;29;20451;-74
2022/12/15 10:46:18;;;;;;;2.97;1.20;;;13.80;53.00;;;;;;4939100;29;20051;-74
2022/12/15 10:48:53;;;;;;;2.85;0.80;;;13.70;53.00;;;;;;4933032;29;20316;-73
2022/12/15 10:51:23;;;;;;;3.38;0.63;;;13.70;53.00;;;;;;4938787;29;20534;-74
2022/12/15 10:54:08;;;;;;;4.60;0.68;;;13.60;53.30;;;;;;4939239;29;20431;-74
2022/12/15 10:56:45;;;;;;;4.25;0.70;;;13.60;53.30;;;;;;4939139;29;20113;-74
2022/12/15 10:59:32;;;;;;;3.05;0.88;;;13.50;53.80;;;;;;4939254;29;20040;-74
2022/12/15 11:02:22;;;;;;;4.10;0.90;;;13.40;54.30;;;;;;4938825;29;20130;-72
2022/12/15 11:04:56;;;;;;;7.60;1.00;;;13.30;54.80;;;;;;4913729;29;20070;-73
2022/12/15 11:07:25;;;;;;;6.45;1.40;;;13.30;54.90;;;;;;4938370;29;20056;-72
2022/12/15 11:09:59;;;;;;;4.63;0.80;;;13.30;54.80;;;;;;4938866;29;20052;-74
2022/12/15 11:15:30;;;;;;;5.85;0.95;;;13.60;55.20;;;;;;4939062;29;19997;-75
2022/12/15 11:18:21;;;;;;;3.47;0.60;;;13.80;54.90;;;;;;4932623;29;20048;-75
2022/12/15 11:21:09;;;;;;;3.67;0.90;;;13.90;54.70;;;;;;4938903;29;20058;-73
2022/12/15 11:23:46;;;;;;;6.30;0.93;;;14.10;54.40;;;;;;4938769;29;20131;-76
2022/12/15 11:26:25;;;;;;;4.82;0.88;;;14.20;54.20;;;;;;4938620;29;20063;-76
2022/12/15 11:29:00;;;;;;;8.13;1.35;;;14.30;54.20;;;;;;4930822;29;20447;-75
2022/12/15 11:31:42;;;;;;;9.75;1.23;;;14.40;54.10;;;;;;4938507;29;20351;-72
2022/12/15 11:34:25;;;;;;;6.65;0.77;;;14.40;54.20;;;;;;4938464;29;20048;-75
2022/12/15 11:37:12;;;;;;;6.80;1.08;;;14.50;54.20;;;;;;4938192;29;20039;-76
2022/12/15 11:39:44;;;;;;;3.13;0.75;;;14.60;54.20;;;;;;4921445;29;20067;-79
2022/12/15 11:42:48;;;;;;;8.93;1.25;;;14.60;54.10;;;;;;4938410;29;20482;-74
2022/12/15 11:45:35;;;;;;;4.03;0.63;;;14.70;54.30;;;;;;4926344;29;20063;-76
2022/12/15 11:48:00;;;;;;;8.60;0.80;;;14.80;54.20;;;;;;4938101;29;20059;-76
2022/12/15 11:50:46;;;;;;;6.80;0.85;;;14.90;54.20;;;;;;4921553;29;20063;-77
2022/12/15 11:53:29;;;;;;;11.20;1.10;;;14.90;54.90;;;;;;4921756;29;20070;-76
2022/12/15 11:56:29;;;;;;;18.83;2.65;;;15.00;54.30;;;;;;4921096;29;20047;-76
2022/12/15 11:59:10;;;;;;;25.08;2.47;;;15.00;53.50;;;;;;4906038;29;20056;-74
2022/12/15 12:01:55;;;;;;;17.38;3.20;;;15.00;53.30;;;;;;4937732;29;20062;-74
2022/12/15 12:04:25;;;;;;;19.27;2.22;;;15.10;53.60;;;;;;4935101;29;20058;-73
2022/12/15 12:07:00;;;;;;;15.15;1.65;;;15.20;53.70;;;;;;4936366;29;20060;-74
2022/12/15 12:09:28;;;;;;;11.85;2.25;;;15.20;53.70;;;;;;4937476;29;20052;-75
2022/12/15 12:12:23;;;;;;;10.93;1.95;;;15.20;53.80;;;;;;4905198;29;20056;-75
2022/12/15 12:15:37;;;;;;;21.13;2.40;;;15.20;54.00;;;;;;4937698;29;20134;-76
2022/12/15 12:18:16;;;;;;;19.73;3.30;;;15.20;54.20;;;;;;4909472;29;20095;-75
2022/12/15 12:20:55;;;;;;;18.80;2.28;;;15.10;54.50;;;;;;4937516;29;20362;-74
2022/12/15 12:23:33;;;;;;;18.23;2.17;;;15.10;54.00;;;;;;4920781;29;20130;-76
2022/12/15 12:26:22;;;;;;;12.73;1.88;;;15.00;53.20;;;;;;4937637;29;20066;-74
2022/12/15 12:29:06;;;;;;;15.80;2.38;;;14.90;53.10;;;;;;4937073;29;20055;-75
2022/12/15 12:31:44;;;;;;;9.68;1.48;;;14.80;53.30;;;;;;4937593;29;20078;-73
2022/12/15 12:34:20;;;;;;;15.10;1.98;;;14.70;53.40;;;;;;4937759;29;20058;-74
2022/12/15 12:36:47;;;;;;;11.85;1.67;;;14.70;53.50;;;;;;4936845;29;20073;-74
2022/12/15 12:39:19;;;;;;;8.82;1.42;;;14.60;53.60;;;;;;4937266;29;20040;-76
2022/12/15 12:42:07;;;;;;;11.77;1.77;;;14.50;53.80;;;;;;4937321;29;20059;-73
2022/12/15 12:44:39;;;;;;;6.13;1.05;;;14.50;53.80;;;;;;4937471;29;20048;-76
2022/12/15 12:47:28;;;;;;;8.70;1.10;;;14.40;53.90;;;;;;4937128;29;20121;-73
2022/12/15 12:50:15;;;;;;;9.02;0.88;;;14.40;53.90;;;;;;4937226;29;20047;-75
2022/12/15 12:52:50;;;;;;;5.72;1.20;;;14.30;53.90;;;;;;4937226;29;20126;-75
2022/12/15 12:55:22;;;;;;;7.32;1.60;;;14.30;54.00;;;;;;4937491;29;20079;-75
2022/12/15 12:57:48;;;;;;;7.53;1.00;;;14.20;54.10;;;;;;4937670;29;20525;-75
2022/12/15 13:00:20;;;;;;;5.55;1.13;;;14.20;54.10;;;;;;4937046;29;20040;-73
2022/12/15 13:03:08;;;;;;;8.32;1.35;;;14.20;54.10;;;;;;4937305;29;20063;-75
2022/12/15 13:05:37;;;;;;;6.60;1.92;;;14.20;54.10;;;;;;4920601;29;20459;-75
2022/12/15 13:08:05;;;;;;;6.97;1.00;;;14.10;54.10;;;;;;4936884;29;20066;-74
2022/12/15 13:10:35;;;;;;;3.05;0.95;;;14.10;54.10;;;;;;4937347;29;20098;-75
2022/12/15 13:13:28;;;;;;;2.55;0.70;;;14.00;54.10;;;;;;4936748;29;20089;-74
2022/12/15 13:16:19;;;;;;;5.53;1.40;;;14.00;54.30;;;;;;4937446;29;20044;-73
2022/12/15 13:19:03;;;;;;;8.73;1.25;;;13.90;54.20;;;;;;4927276;29;20070;-75
2022/12/15 13:21:41;;;;;;;6.47;1.08;;;13.90;54.40;;;;;;4936842;29;20458;-74
2022/12/15 13:24:36;;;;;;;6.43;1.02;;;13.80;54.50;;;;;;4920245;29;20056;-75
2022/12/15 13:27:07;;;;;;;4.90;1.02;;;13.80;54.50;;;;;;4919828;29;20052;-74
2022/12/15 13:29:35;;;;;;;3.97;1.48;;;13.70;54.60;;;;;;4929801;29;20131;-75
2022/12/15 13:32:01;;;;;;;5.20;1.33;;;13.70;54.80;;;;;;4936868;29;20047;-73
2022/12/15 13:34:34;;;;;;;3.58;0.90;;;13.70;54.80;;;;;;4938152;29;20550;-74
2022/12/15 13:37:00;;;;;;;4.63;0.80;;;13.60;54.80;;;;;;4940667;29;20044;-75
2022/12/15 13:39:26;;;;;;;2.78;0.63;;;13.60;54.90;;;;;;4940526;29;20079;-74
2022/12/15 13:41:55;;;;;;;4.65;0.68;;;13.60;55.00;;;;;;4940588;29;20090;-74
2022/12/15 13:44:59;;;;;;;2.50;0.75;;;13.60;55.10;;;;;;4940346;29;20083;-75
2022/12/15 13:47:29;;;;;;;6.75;1.02;;;13.50;55.10;;;;;;4889155;29;20177;-75
2022/12/15 13:50:00;;;;;;;5.72;1.00;;;13.50;55.20;;;;;;4914792;29;20371;-74
2022/12/15 13:52:37;;;;;;;5.43;1.00;;;13.50;55.30;;;;;;4940286;29;20054;-74
2022/12/15 13:55:16;;;;;;;4.10;0.77;;;13.40;55.40;;;;;;4907803;29;20048;-75
2022/12/15 13:58:08;;;;;;;4.55;0.82;;;13.50;55.50;;;;;;4940725;29;20043;-74
2022/12/15 14:00:37;;;;;;;5.53;0.90;;;13.50;55.30;;;;;;4929513;29;20051;-75
2022/12/15 14:03:10;;;;;;;6.85;0.95;;;13.50;55.80;;;;;;4940075;29;20083;-74
2022/12/15 14:05:37;;;;;;;8.13;1.25;;;13.60;56.40;;;;;;4940083;29;20044;-74
2022/12/15 14:08:12;;;;;;;5.97;0.75;;;13.80;56.40;;;;;;4940299;29;20048;-74
2022/12/15 14:10:46;;;;;;;6.05;0.85;;;14.00;56.40;;;;;;4940073;29;20099;-77
2022/12/15 14:13:28;;;;;;;6.70;1.25;;;14.10;56.20;;;;;;4940087;29;20360;-76
2022/12/15 14:16:13;;;;;;;9.55;1.35;;;14.20;56.20;;;;;;4939975;29;20043;-73
2022/12/15 14:18:40;;;;;;;9.95;0.98;;;14.30;56.60;;;;;;4939651;29;20419;-73
2022/12/15 14:21:20;;;;;;;16.52;1.90;;;14.40;56.20;;;;;;4940028;29;20086;-75
2022/12/15 14:23:46;;;;;;;8.55;1.30;;;14.50;56.70;;;;;;4939601;29;20051;-77
2022/12/15 14:26:14;;;;;;;14.25;1.58;;;14.50;56.80;;;;;;4939500;29;20062;-76
2022/12/15 14:28:44;;;;;;;12.27;1.52;;;14.60;57.30;;;;;;4939657;29;20422;-75
2022/12/15 14:31:21;;;;;;;8.43;1.35;;;14.60;57.80;;;;;;4923155;29;20051;-75
2022/12/15 14:33:52;;;;;;;6.70;0.82;;;14.70;58.10;;;;;;4939811;29;20059;-75
2022/12/15 14:36:19;;;;;;;7.28;1.85;;;14.70;58.10;;;;;;4922939;29;20059;-75
2022/12/15 14:39:01;;;;;;;15.82;2.97;;;14.80;58.10;;;;;;4939342;29;20422;-71
2022/12/15 14:41:37;;;;;;;13.00;2.17;;;14.90;58.00;;;;;;4939411;29;20047;-71
2022/12/15 14:44:14;;;;;;;15.02;2.17;;;14.90;57.90;;;;;;4922315;29;20051;-76
2022/12/15 14:46:46;;;;;;;14.38;2.03;;;14.90;58.00;;;;;;4922017;29;20059;-74
2022/12/15 14:49:28;;;;;;;17.17;1.85;;;15.00;58.10;;;;;;4939619;29;20054;-74
2022/12/15 14:52:05;;;;;;;15.45;1.85;;;15.10;58.20;;;;;;4939497;29;20090;-76
2022/12/15 14:54:37;;;;;;;13.73;1.05;;;15.10;58.20;;;;;;4939205;29;20472;-72
2022/12/15 14:57:15;;;;;;;18.95;2.05;;;15.20;58.00;;;;;;4939226;29;20044;-74
2022/12/15 14:59:44;;;;;;;19.85;2.05;;;15.20;58.00;;;;;;4938600;29;20481;-74
2022/12/15 15:02:18;;;;;;;11.25;1.52;;;15.20;57.90;;;;;;4939176;29;20493;-75
2022/12/15 15:05:16;;;;;;;9.15;1.30;;;15.30;58.00;;;;;;4938993;29;20058;-79
2022/12/15 15:07:44;;;;;;;12.98;1.55;;;15.30;58.30;;;;;;4937716;29;20447;-74
2022/12/15 15:10:23;;;;;;;9.32;1.23;;;15.40;58.10;;;;;;4938688;29;20482;-74
2022/12/15 15:12:49;;;;;;;11.60;1.65;;;15.40;58.10;;;;;;4938985;29;20087;-73
2022/12/15 15:15:17;;;;;;;11.80;1.30;;;15.50;58.10;;;;;;4938955;29;20438;-74
2022/12/15 15:17:53;;;;;;;11.23;2.38;;;15.50;58.40;;;;;;4938635;29;20083;-73
2022/12/15 15:20:25;;;;;;;17.10;1.95;;;15.50;58.60;;;;;;4920295;29;20048;-73
2022/12/15 15:23:06;;;;;;;12.55;1.50;;;15.60;58.60;;;;;;4931114;29;20103;-73
2022/12/15 15:25:32;;;;;;;11.18;1.00;;;15.60;58.50;;;;;;4938844;29;20095;-73
2022/12/15 15:28:23;;;;;;;14.20;1.30;;;15.70;58.30;;;;;;4938242;29;20166;-73
2022/12/15 15:30:52;;;;;;;10.95;1.40;;;15.70;58.30;;;;;;4925246;29;20367;-72
2022/12/15 15:33:20;;;;;;;11.15;1.58;;;15.70;58.30;;;;;;4938286;29;20122;-73
2022/12/15 15:35:57;;;;;;;15.23;1.95;;;15.80;58.50;;;;;;4938415;29;20146;-74
2022/12/15 15:38:38;;;;;;;12.23;1.02;;;15.80;58.70;;;;;;4938262;29;20195;-74
2022/12/15 15:41:13;;;;;;;14.48;1.48;;;15.80;58.60;;;;;;4938491;29;20078;-73
2022/12/15 15:43:39;;;;;;;10.38;1.42;;;15.90;58.40;;;;;;4938148;29;20063;-73
2022/12/15 15:46:18;;;;;;;11.90;1.48;;;15.90;58.20;;;;;;4938032;29;20134;-74
2022/12/15 15:48:53;;;;;;;11.32;1.58;;;15.90;58.30;;;;;;4938595;29;20159;-73
2022/12/15 15:51:20;;;;;;;10.95;1.50;;;15.90;58.20;;;;;;4938124;29;20403;-73
2022/12/15 15:53:46;;;;;;;22.90;2.42;;;15.90;58.10;;;;;;4938399;29;20469;-73
2022/12/15 15:56:14;;;;;;;14.23;2.15;;;15.90;58.10;;;;;;4937891;29;20371;-73
2022/12/15 15:58:42;;;;;;;18.05;2.08;;;15.90;58.10;;;;;;4937485;29;20047;-73
2022/12/15 16:01:08;;;;;;;12.88;1.60;;;16.00;57.90;;;;;;4938236;29;20467;-73
2022/12/15 16:03:35;;;;;;;11.15;1.25;;;16.00;57.80;;;;;;4937731;29;20044;-73
2022/12/15 16:06:02;;;;;;;12.25;1.80;;;16.00;57.70;;;;;;4938267;29;20096;-73
2022/12/15 16:08:33;;;;;;;6.32;1.00;;;16.00;57.80;;;;;;4938374;29;20036;-73
2022/12/15 16:10:59;;;;;;;15.02;1.70;;;15.90;57.90;;;;;;4936909;29;20039;-73
2022/12/15 16:13:24;;;;;;;9.50;1.00;;;15.90;58.00;;;;;;4938730;29;20103;-73
2022/12/15 16:15:50;;;;;;;16.50;1.58;;;15.90;58.00;;;;;;4922266;29;20131;-74
2022/12/15 16:18:16;;;;;;;8.52;1.25;;;15.80;58.00;;;;;;4927621;29;20056;-77
2022/12/15 16:20:45;;;;;;;8.43;0.90;;;15.80;56.90;;;;;;4936525;29;20055;-72
2022/12/15 16:23:24;;;;;;;8.10;1.30;;;15.70;55.70;;;;;;4938181;29;20151;-73
2022/12/15 16:25:55;;;;;;;5.05;0.98;;;15.70;54.20;;;;;;4937587;29;20044;-72
2022/12/15 16:28:24;;;;;;;11.18;1.02;;;15.60;53.70;;;;;;4931846;29;20060;-72
2022/12/15 16:30:50;;;;;;;12.73;1.25;;;15.50;53.80;;;;;;4937567;29;20047;-72
2022/12/15 16:33:16;;;;;;;10.70;1.15;;;15.60;54.70;;;;;;4937071;29;20422;-72
2022/12/15 16:35:43;;;;;;;8.02;1.33;;;15.60;54.50;;;;;;4936980;29;20083;-72
2022/12/15 16:38:30;;;;;;;10.25;1.75;;;15.20;53.50;;;;;;4937608;29;20426;-72
2022/12/15 16:40:57;;;;;;;8.85;0.88;;;15.20;56.00;;;;;;4937618;29;20142;-72
2022/12/15 16:43:25;;;;;;;15.23;1.23;;;15.30;55.80;;;;;;4937210;29;20059;-72
2022/12/15 16:45:53;;;;;;;16.55;1.80;;;15.40;55.80;;;;;;4937622;29;20103;-72
2022/12/15 16:48:20;;;;;;;10.80;1.83;;;15.50;55.90;;;;;;4937275;29;20058;-73
2022/12/15 16:50:51;;;;;;;14.23;1.20;;;15.60;56.10;;;;;;4936957;29;20048;-72
2022/12/15 16:53:26;;;;;;;10.93;1.33;;;15.60;56.10;;;;;;4937530;29;20386;-70
2022/12/15 16:55:54;;;;;;;14.25;1.23;;;15.70;56.70;;;;;;4937089;29;20043;-72
2022/12/15 16:58:21;;;;;;;15.18;1.70;;;15.60;56.50;;;;;;4937260;29;20056;-72
2022/12/15 17:00:47;;;;;;;14.00;1.35;;;15.60;56.50;;;;;;4937077;29;20190;-73
2022/12/15 17:03:14;;;;;;;19.50;2.15;;;15.60;56.60;;;;;;4937348;29;20075;-73
2022/12/15 17:05:43;;;;;;;13.02;1.90;;;15.60;56.90;;;;;;4937403;29;20091;-73
2022/12/15 17:08:26;;;;;;;13.35;1.35;;;15.50;57.10;;;;;;4938740;29;20059;-73
2022/12/15 17:10:52;;;;;;;7.80;0.85;;;15.40;57.20;;;;;;4942995;29;20059;-73
2022/12/15 17:13:34;;;;;;;9.43;1.15;;;15.40;57.50;;;;;;4943743;29;20058;-73
2022/12/15 17:16:00;;;;;;;13.55;1.30;;;15.30;57.60;;;;;;4943568;29;20050;-72
2022/12/15 17:18:26;;;;;;;9.77;0.80;;;15.30;57.70;;;;;;4943531;29;20455;-70
2022/12/15 17:21:02;;;;;;;8.20;1.10;;;15.10;56.60;;;;;;4943074;29;20131;-71
2022/12/15 17:23:28;;;;;;;8.65;1.00;;;15.10;57.70;;;;;;4943213;29;20469;-70
2022/12/15 17:25:54;;;;;;;7.88;1.17;;;15.00;57.70;;;;;;4943098;29;20075;-70
2022/12/15 17:28:27;;;;;;;9.68;1.13;;;15.00;57.70;;;;;;4943343;29;20126;-71
2022/12/15 17:30:53;;;;;;;5.43;1.35;;;14.90;57.60;;;;;;4943068;29;20051;-70
2022/12/15 17:33:21;;;;;;;6.43;0.90;;;14.80;57.60;;;;;;4943259;29;20370;-71
2022/12/15 17:35:50;;;;;;;7.75;0.70;;;14.80;57.60;;;;;;4943242;29;20079;-69
2022/12/15 17:38:19;;;;;;;4.75;0.70;;;14.70;57.60;;;;;;4936298;29;20510;-70
2022/12/15 17:40:46;;;;;;;5.28;1.35;;;14.70;57.70;;;;;;4943481;29;20395;-70
2022/12/15 17:43:14;;;;;;;10.00;1.25;;;14.60;57.70;;;;;;4943113;29;20107;-70
2022/12/15 17:45:40;;;;;;;5.57;1.20;;;14.60;57.70;;;;;;4943269;29;20451;-70
2022/12/15 17:48:06;;;;;;;4.20;0.77;;;14.50;57.80;;;;;;4926395;29;20053;-70
2022/12/15 17:50:31;;;;;;;5.55;0.88;;;14.50;57.80;;;;;;4943085;29;20055;-70
2022/12/15 17:52:58;;;;;;;2.70;0.57;;;14.50;57.90;;;;;;4943110;29;20036;-71
2022/12/15 17:55:27;;;;;;;3.30;0.93;;;14.40;57.70;;;;;;4942789;29;20463;-70
2022/12/15 17:57:57;;;;;;;5.55;0.80;;;14.40;57.80;;;;;;4943329;29;20051;-70
2022/12/15 18:00:31;;;;;;;4.10;0.75;;;14.40;57.80;;;;;;4942409;29;20044;-70
2022/12/15 18:02:59;;;;;;;5.57;0.82;;;14.40;57.50;;;;;;4943014;29;20174;-70
2022/12/15 18:05:29;;;;;;;2.03;0.50;;;14.30;57.80;;;;;;4942382;29;20055;-70
2022/12/15 18:08:03;;;;;;;6.07;0.75;;;14.30;57.80;;;;;;4942935;29;20090;-71
2022/12/15 18:10:36;;;;;;;11.52;0.60;;;14.30;58.00;;;;;;4942436;29;20391;-69
2022/12/15 18:13:32;;;;;;;4.32;0.65;;;14.30;57.90;;;;;;4924208;29;20055;-74
2022/12/15 18:16:02;;;;;;;5.65;0.80;;;14.30;57.80;;;;;;4932623;29;20475;-70
2022/12/15 18:18:28;;;;;;;4.13;0.82;;;14.20;58.90;;;;;;4941589;29;20055;-70
2022/12/15 18:21:00;;;;;;;4.57;0.80;;;14.00;59.30;;;;;;4939220;29;20032;-68
2022/12/15 18:23:31;;;;;;;6.38;0.80;;;13.90;59.40;;;;;;4939760;29;20059;-69
2022/12/15 18:25:58;;;;;;;4.05;0.68;;;14.00;59.40;;;;;;4939700;29;20047;-70
2022/12/15 18:28:34;;;;;;;5.07;0.80;;;14.00;58.90;;;;;;4939538;29;20055;-70
2022/12/15 18:31:26;;;;;;;4.78;1.10;;;14.00;58.40;;;;;;4939803;29;20051;-70
2022/12/15 18:33:54;;;;;;;5.35;1.20;;;14.00;58.30;;;;;;4939531;29;20071;-69